QLK223D YSSY-YSWG
Flight info
| Callsign | QLK223D |
|---|---|
| Flight time | N/A |
| Altitude | 20000 |
| Route | TESAT V169 EXETA W10 WG |
| Aircraft | DH8D/M-SDE2E3FGRY/H |
Departure
| Time | 2026-04-20 04:55 |
|---|---|
| Airport | Sydney Kingsford Smith International Airport (YSSY) |
Arrival
| Time | N/A |
|---|---|
| Airport | Wagga Wagga Airport (YSWG) |
| Time | Latitude | Longitude | Altitude | Speed | Heading |
|---|---|---|---|---|---|
| 2026-04-20 04:33 | -33.93045 | 151.18242 | 30 ft | 0 kts | 135° |
| 2026-04-20 04:46 | -33.93045 | 151.18243 | 30 ft | 0 kts | 135° |
| 2026-04-20 04:46 | -33.93038 | 151.18233 | 30 ft | 2 kts | 134° |
| 2026-04-20 04:46 | -33.93028 | 151.18222 | 30 ft | 2 kts | 134° |
| 2026-04-20 04:47 | -33.93018 | 151.18210 | 30 ft | 2 kts | 134° |
| 2026-04-20 04:47 | -33.93008 | 151.18198 | 30 ft | 2 kts | 143° |
| 2026-04-20 04:47 | -33.92995 | 151.18195 | 30 ft | 1 kts | 191° |
| 2026-04-20 04:47 | -33.92993 | 151.18195 | 30 ft | 0 kts | 191° |
| 2026-04-20 04:50 | -33.93000 | 151.18195 | 30 ft | 3 kts | 188° |
| 2026-04-20 04:50 | -33.93034 | 151.18188 | 30 ft | 6 kts | 189° |
| 2026-04-20 04:51 | -33.93084 | 151.18167 | 30 ft | 8 kts | 217° |
| 2026-04-20 04:51 | -33.93105 | 151.18083 | 30 ft | 13 kts | 273° |
| 2026-04-20 04:51 | -33.93085 | 151.17953 | 30 ft | 18 kts | 281° |
| 2026-04-20 04:51 | -33.93058 | 151.17780 | 30 ft | 22 kts | 285° |
| 2026-04-20 04:52 | -33.93009 | 151.17598 | 30 ft | 21 kts | 280° |
| 2026-04-20 04:52 | -33.92979 | 151.17429 | 30 ft | 21 kts | 279° |
| 2026-04-20 04:52 | -33.92961 | 151.17316 | 30 ft | 4 kts | 279° |
| 2026-04-20 04:52 | -33.92959 | 151.17300 | 30 ft | 5 kts | 278° |
| 2026-04-20 04:53 | -33.92966 | 151.17235 | 30 ft | 11 kts | 247° |
| 2026-04-20 04:53 | -33.93015 | 151.17184 | 30 ft | 9 kts | 189° |
| 2026-04-20 04:53 | -33.93041 | 151.17188 | 30 ft | 0 kts | 168° |
| 2026-04-20 04:54 | -33.93090 | 151.17198 | 30 ft | 32 kts | 172° |
| 2026-04-20 04:54 | -33.93634 | 151.17340 | 30 ft | 120 kts | 166° |
| 2026-04-20 04:55 | -33.94622 | 151.17606 | 137 ft | 160 kts | 169° |
| 2026-04-20 04:55 | -33.95776 | 151.17925 | 521 ft | 182 kts | 171° |
| 2026-04-20 04:55 | -33.97068 | 151.18077 | 1202 ft | 190 kts | 181° |
| 2026-04-20 04:55 | -33.98288 | 151.17493 | 1911 ft | 200 kts | 216° |
| 2026-04-20 04:56 | -33.99205 | 151.16292 | 2676 ft | 203 kts | 225° |
| 2026-04-20 04:56 | -34.00149 | 151.15039 | 3483 ft | 204 kts | 223° |
| 2026-04-20 04:56 | -34.01121 | 151.13768 | 3914 ft | 224 kts | 224° |
| 2026-04-20 04:56 | -34.02254 | 151.12294 | 3895 ft | 248 kts | 224° |
| 2026-04-20 04:57 | -34.03380 | 151.10847 | 3865 ft | 241 kts | 224° |
| 2026-04-20 04:57 | -34.04488 | 151.09462 | 3864 ft | 234 kts | 221° |
| 2026-04-20 04:57 | -34.05456 | 151.07956 | 3895 ft | 234 kts | 239° |
| 2026-04-20 04:57 | -34.05909 | 151.06689 | 3929 ft | 230 kts | 244° |